createdAt,value
2017-06-05T00:00:44.085Z,20.16
2017-06-05T00:01:44.978Z,20.16
2017-06-05T00:02:45.621Z,20.19
2017-06-05T00:03:46.263Z,20.21
2017-06-05T00:04:46.902Z,20.14
2017-06-05T00:05:47.545Z,20.16
2017-06-05T00:06:48.180Z,20.16
2017-06-05T00:07:48.824Z,20.21
2017-06-05T00:08:49.460Z,20.13
2017-06-05T00:09:50.099Z,20.24
2017-06-05T00:10:50.885Z,20.18
2017-06-05T00:11:51.525Z,20.18
2017-06-05T00:12:52.166Z,20.19
2017-06-05T00:13:52.800Z,20.14
2017-06-05T00:14:53.444Z,20.18
2017-06-05T00:15:54.088Z,20.18
2017-06-05T00:16:54.725Z,20.16
2017-06-05T00:17:55.363Z,20.14
2017-06-05T00:18:56.204Z,20.04
2017-06-05T00:19:56.842Z,20.18
2017-06-05T00:20:57.482Z,20.16
2017-06-05T00:21:58.124Z,20.14
2017-06-05T00:22:58.765Z,20.13
2017-06-05T00:23:59.407Z,20.14
2017-06-05T00:25:00.046Z,20.10
2017-06-05T00:26:00.688Z,20.07
2017-06-05T00:27:01.481Z,20.03
2017-06-05T00:28:02.122Z,20.06
2017-06-05T00:29:02.761Z,20.04
2017-06-05T00:30:03.400Z,20.06
2017-06-05T00:31:04.041Z,20.02
2017-06-05T00:32:04.680Z,20.04
2017-06-05T00:33:05.322Z,20.03
2017-06-05T00:34:05.964Z,19.99
2017-06-05T00:35:06.906Z,20.02
2017-06-05T00:36:07.551Z,20.02
2017-06-05T00:37:08.196Z,19.99
2017-06-05T00:38:08.836Z,20.03
2017-06-05T00:39:09.476Z,20.03
2017-06-05T00:40:10.115Z,20.06
2017-06-05T00:41:10.750Z,20.07
2017-06-05T00:42:11.396Z,20.00
2017-06-05T00:43:12.339Z,20.02
2017-06-05T00:44:12.982Z,20.10
2017-06-05T00:45:13.625Z,20.00
2017-06-05T00:46:14.266Z,20.06
2017-06-05T00:47:14.902Z,20.06
2017-06-05T00:48:15.543Z,20.00
2017-06-05T00:49:16.179Z,20.02
2017-06-05T00:50:16.821Z,20.07
2017-06-05T00:51:17.465Z,20.06
2017-06-05T00:52:18.305Z,20.06
2017-06-05T00:53:18.950Z,20.03
2017-06-05T00:54:19.584Z,19.99
2017-06-05T00:55:20.228Z,20.03
2017-06-05T00:56:20.871Z,20.00
2017-06-05T00:57:21.505Z,20.04
2017-06-05T00:58:22.147Z,20.00
2017-06-05T00:59:22.781Z,20.04
2017-06-05T01:00:23.575Z,20.00
2017-06-05T01:01:24.216Z,20.00
2017-06-05T01:02:24.853Z,20.04
2017-06-05T01:03:25.492Z,20.06
2017-06-05T01:04:26.132Z,20.00
2017-06-05T01:05:26.770Z,20.04
2017-06-05T01:06:27.406Z,20.02
2017-06-05T01:07:28.046Z,19.96
2017-06-05T01:08:28.889Z,19.92
2017-06-05T01:09:29.526Z,19.94
2017-06-05T01:10:30.167Z,19.91
2017-06-05T01:11:30.809Z,19.92
2017-06-05T01:12:31.448Z,19.92
2017-06-05T01:13:32.091Z,19.92
2017-06-05T01:14:32.735Z,19.88
2017-06-05T01:15:33.373Z,19.94
2017-06-05T01:16:34.163Z,19.94
2017-06-05T01:17:34.805Z,19.91
2017-06-05T01:18:35.447Z,19.94
2017-06-05T01:19:36.088Z,19.88
2017-06-05T01:20:36.728Z,19.96
2017-06-05T01:21:37.371Z,19.89
2017-06-05T01:22:38.009Z,19.96
2017-06-05T01:23:38.648Z,19.88
2017-06-05T01:24:39.284Z,19.88
2017-06-05T01:25:40.124Z,19.91
2017-06-05T01:26:40.766Z,19.81
2017-06-05T01:27:41.410Z,19.88
2017-06-05T01:28:42.055Z,19.85
2017-06-05T01:29:42.692Z,19.92
2017-06-05T01:30:43.331Z,19.91
2017-06-05T01:31:43.972Z,19.82
2017-06-05T01:32:44.612Z,19.89
2017-06-05T01:33:45.453Z,19.86
2017-06-05T01:34:46.094Z,19.89
2017-06-05T01:35:46.735Z,19.85
2017-06-05T01:36:47.380Z,19.85
2017-06-05T01:37:48.021Z,19.88
2017-06-05T01:38:48.665Z,19.86
2017-06-05T01:39:49.306Z,19.84
2017-06-05T01:40:49.948Z,19.85
2017-06-05T01:41:50.791Z,19.89
2017-06-05T01:42:51.426Z,19.91
2017-06-05T01:43:52.066Z,19.86
2017-06-05T01:44:52.708Z,19.89
2017-06-05T01:45:53.351Z,19.88
2017-06-05T01:46:53.991Z,19.89
2017-06-05T01:47:54.632Z,19.88
2017-06-05T01:48:55.274Z,19.89
2017-06-05T01:49:56.065Z,19.88
2017-06-05T01:50:56.705Z,19.95
2017-06-05T01:51:57.346Z,19.94
2017-06-05T01:52:57.979Z,19.81
2017-06-05T01:53:58.624Z,19.91
2017-06-05T01:54:59.265Z,19.91
2017-06-05T01:55:59.901Z,19.92
2017-06-05T01:57:00.543Z,19.92
2017-06-05T01:58:01.385Z,19.82
2017-06-05T01:59:02.027Z,19.85
2017-06-05T02:00:02.668Z,19.89
2017-06-05T02:01:03.309Z,19.84
2017-06-05T02:02:03.951Z,19.89
2017-06-05T02:03:04.588Z,19.85
2017-06-05T02:04:05.231Z,19.89
2017-06-05T02:05:05.868Z,19.85
2017-06-05T02:06:06.510Z,19.86
2017-06-05T02:07:07.296Z,19.86
2017-06-05T02:08:07.938Z,19.88
2017-06-05T02:09:08.582Z,19.86
2017-06-05T02:10:09.226Z,19.88
2017-06-05T02:11:09.872Z,19.89
2017-06-05T02:12:10.504Z,19.85
2017-06-05T02:13:11.139Z,19.91
2017-06-05T02:14:11.781Z,19.91
2017-06-05T02:15:12.625Z,19.89
2017-06-05T02:16:13.467Z,19.89
2017-06-05T02:17:14.110Z,19.82
2017-06-05T02:18:14.750Z,19.88
2017-06-05T02:19:15.395Z,19.91
2017-06-05T02:20:16.038Z,19.89
2017-06-05T02:21:16.676Z,19.88
2017-06-05T02:22:17.317Z,19.81
2017-06-05T02:23:18.159Z,19.89
2017-06-05T02:24:18.796Z,19.82
2017-06-05T02:25:19.437Z,19.77
2017-06-05T02:26:20.078Z,19.84
2017-06-05T02:27:20.722Z,19.76
2017-06-05T02:28:21.358Z,19.79
2017-06-05T02:29:21.999Z,19.73
2017-06-05T02:30:22.638Z,19.73
2017-06-05T02:31:23.475Z,19.73
2017-06-05T02:32:24.117Z,19.71
2017-06-05T02:33:24.757Z,19.67
2017-06-05T02:34:25.395Z,19.67
2017-06-05T02:35:26.031Z,19.69
2017-06-05T02:36:26.667Z,19.66
2017-06-05T02:37:27.307Z,19.62
2017-06-05T02:38:27.949Z,19.66
2017-06-05T02:39:28.591Z,19.64
2017-06-05T02:40:29.426Z,19.70
2017-06-05T02:41:30.068Z,19.63
2017-06-05T02:42:30.712Z,19.66
2017-06-05T02:43:31.352Z,19.67
2017-06-05T02:44:31.991Z,19.62
2017-06-05T02:45:32.631Z,19.55
2017-06-05T02:46:33.273Z,19.59
2017-06-05T02:47:33.913Z,19.62
2017-06-05T02:48:34.704Z,19.66
2017-06-05T02:49:35.346Z,19.66
2017-06-05T02:50:35.985Z,19.64
2017-06-05T02:51:36.627Z,19.63
2017-06-05T02:52:37.267Z,19.70
2017-06-05T02:53:37.912Z,19.59
2017-06-05T02:54:38.551Z,19.66
2017-06-05T02:55:39.188Z,19.64
2017-06-05T02:56:40.023Z,19.62
2017-06-05T02:57:40.665Z,19.58
2017-06-05T02:58:41.305Z,19.71
2017-06-05T02:59:41.945Z,19.69
2017-06-05T03:00:42.582Z,19.66
2017-06-05T03:01:43.223Z,19.63
2017-06-05T03:02:43.864Z,19.73
2017-06-05T03:03:44.506Z,19.67
2017-06-05T03:04:45.446Z,19.62
2017-06-05T03:05:46.102Z,19.67
2017-06-05T03:06:46.736Z,19.69
2017-06-05T03:07:47.375Z,19.51
2017-06-05T03:08:48.017Z,19.52
2017-06-05T03:09:48.654Z,19.55
2017-06-05T03:10:49.295Z,19.59
2017-06-05T03:11:49.939Z,19.55
2017-06-05T03:12:50.974Z,19.51
2017-06-05T03:13:51.615Z,19.58
2017-06-05T03:14:52.255Z,19.54
2017-06-05T03:15:52.895Z,19.49
2017-06-05T03:16:53.537Z,19.49
2017-06-05T03:17:54.176Z,19.48
2017-06-05T03:18:54.816Z,19.49
2017-06-05T03:19:55.459Z,19.45
2017-06-05T03:20:56.100Z,19.45
2017-06-05T03:21:57.043Z,19.44
2017-06-05T03:22:57.682Z,19.49
2017-06-05T03:23:58.323Z,19.45
2017-06-05T03:24:58.963Z,19.48
2017-06-05T03:25:59.603Z,19.47
2017-06-05T03:27:00.246Z,19.47
2017-06-05T03:28:00.887Z,19.47
2017-06-05T03:29:01.529Z,19.48
2017-06-05T03:30:02.370Z,19.48
2017-06-05T03:31:03.009Z,19.44
2017-06-05T03:32:03.654Z,19.45
2017-06-05T03:33:04.294Z,19.44
2017-06-05T03:34:04.929Z,19.49
2017-06-05T03:35:05.571Z,19.55
2017-06-05T03:36:06.213Z,19.63
2017-06-05T03:37:06.851Z,19.52
2017-06-05T03:38:07.694Z,19.58
2017-06-05T03:39:08.336Z,19.66
2017-06-05T03:40:08.976Z,19.59
2017-06-05T03:41:09.616Z,19.64
2017-06-05T03:42:10.255Z,19.69
2017-06-05T03:43:10.898Z,19.63
2017-06-05T03:44:11.537Z,19.69
2017-06-05T03:45:12.175Z,19.58
2017-06-05T03:46:12.966Z,19.63
2017-06-05T03:47:13.610Z,19.64
2017-06-05T03:48:14.249Z,19.67
2017-06-05T03:49:14.883Z,19.56
2017-06-05T03:50:15.524Z,19.54
2017-06-05T03:51:16.165Z,19.52
2017-06-05T03:52:16.806Z,19.54
2017-06-05T03:53:17.449Z,19.54
2017-06-05T03:54:18.087Z,19.56
2017-06-05T03:55:18.928Z,19.48
2017-06-05T03:56:19.570Z,19.54
2017-06-05T03:57:20.206Z,19.45
2017-06-05T03:58:20.848Z,19.41
2017-06-05T03:59:21.487Z,19.48
2017-06-05T04:00:22.127Z,19.51
2017-06-05T04:01:22.769Z,19.48
2017-06-05T04:02:23.411Z,19.48
2017-06-05T04:03:24.246Z,19.47
2017-06-05T04:04:24.886Z,19.51
2017-06-05T04:05:25.529Z,19.49
2017-06-05T04:06:26.169Z,19.48
2017-06-05T04:07:26.809Z,19.47
2017-06-05T04:08:27.448Z,19.45
2017-06-05T04:09:28.087Z,19.47
2017-06-05T04:10:28.727Z,19.47
2017-06-05T04:11:29.818Z,19.41
2017-06-05T04:12:30.458Z,19.51
2017-06-05T04:13:31.098Z,19.52
2017-06-05T04:14:31.745Z,19.51
2017-06-05T04:15:32.381Z,19.44
2017-06-05T04:16:33.020Z,19.58
2017-06-05T04:17:33.664Z,19.52
2017-06-05T04:18:34.308Z,19.51
2017-06-05T04:19:35.099Z,19.55
2017-06-05T04:20:35.740Z,19.51
2017-06-05T04:21:36.385Z,19.55
2017-06-05T04:22:37.024Z,19.55
2017-06-05T04:23:37.666Z,19.41
2017-06-05T04:24:38.306Z,19.44
2017-06-05T04:25:38.945Z,19.44
2017-06-05T04:26:39.587Z,19.51
2017-06-05T04:27:40.426Z,19.52
2017-06-05T04:28:41.074Z,19.54
2017-06-05T04:29:41.707Z,19.52
2017-06-05T04:30:42.347Z,19.51
2017-06-05T04:31:42.989Z,19.56
2017-06-05T04:32:43.628Z,19.56
2017-06-05T04:33:44.270Z,19.45
2017-06-05T04:34:44.912Z,19.51
2017-06-05T04:35:45.547Z,19.51
2017-06-05T04:36:46.390Z,19.52
2017-06-05T04:37:47.033Z,19.58
2017-06-05T04:38:47.674Z,19.59
2017-06-05T04:39:48.315Z,19.55
2017-06-05T04:40:48.958Z,19.58
2017-06-05T04:41:49.599Z,19.56
2017-06-05T04:42:50.238Z,19.59
2017-06-05T04:43:50.873Z,19.70
2017-06-05T04:44:51.714Z,19.67
2017-06-05T04:45:52.356Z,19.58
2017-06-05T04:46:53.000Z,19.62
2017-06-05T04:47:53.638Z,19.66
2017-06-05T04:48:54.273Z,19.64
2017-06-05T04:49:54.916Z,19.52
2017-06-05T04:50:55.556Z,19.63
2017-06-05T04:51:56.196Z,19.66
2017-06-05T04:52:57.035Z,19.56
2017-06-05T04:53:57.679Z,19.59
2017-06-05T04:54:58.321Z,19.59
2017-06-05T04:55:58.960Z,19.54
2017-06-05T04:56:59.599Z,19.59
2017-06-05T04:58:00.241Z,19.54
2017-06-05T04:59:00.883Z,19.59
2017-06-05T05:00:01.521Z,19.62
2017-06-05T05:01:02.312Z,19.48
2017-06-05T05:02:02.946Z,19.59
2017-06-05T05:03:03.591Z,19.59
2017-06-05T05:04:04.231Z,19.63
2017-06-05T05:05:04.872Z,19.62
2017-06-05T05:06:05.513Z,19.63
2017-06-05T05:07:06.153Z,19.66
2017-06-05T05:08:06.795Z,19.62
2017-06-05T05:09:07.434Z,19.66
2017-06-05T05:10:08.276Z,19.62
2017-06-05T05:11:08.916Z,19.63
2017-06-05T05:12:09.557Z,19.66
2017-06-05T05:13:10.197Z,19.66
2017-06-05T05:14:10.837Z,19.62
2017-06-05T05:15:11.479Z,19.62
2017-06-05T05:16:12.123Z,19.48
2017-06-05T05:17:12.761Z,19.63
2017-06-05T05:18:13.653Z,19.63
2017-06-05T05:19:14.287Z,19.54
2017-06-05T05:20:14.929Z,19.64
2017-06-05T05:21:15.565Z,19.59
2017-06-05T05:22:16.201Z,19.56
2017-06-05T05:23:16.842Z,19.56
2017-06-05T05:24:17.481Z,19.52
2017-06-05T05:25:18.123Z,19.62
2017-06-05T05:26:19.017Z,19.59
2017-06-05T05:27:19.656Z,19.63
2017-06-05T05:28:20.298Z,19.56
2017-06-05T05:29:20.937Z,19.63
2017-06-05T05:30:21.577Z,19.54
2017-06-05T05:31:22.218Z,19.52
2017-06-05T05:32:22.859Z,19.59
2017-06-05T05:33:23.502Z,19.58
2017-06-05T05:34:24.393Z,19.49
2017-06-05T05:35:25.042Z,19.55
2017-06-05T05:36:25.680Z,19.59
2017-06-05T05:37:26.321Z,19.62
2017-06-05T05:38:26.964Z,19.63
2017-06-05T05:39:27.606Z,19.55
2017-06-05T05:40:28.247Z,19.63
2017-06-05T05:41:28.894Z,19.58
2017-06-05T05:42:29.675Z,19.54
2017-06-05T05:43:30.322Z,19.64
2017-06-05T05:44:30.962Z,19.59
2017-06-05T05:45:31.596Z,19.62
2017-06-05T05:46:32.234Z,19.62
2017-06-05T05:47:32.876Z,19.64
2017-06-05T05:48:33.515Z,19.63
2017-06-05T05:49:34.158Z,19.62
2017-06-05T05:50:34.793Z,19.63
2017-06-05T05:51:35.685Z,19.59
2017-06-05T05:52:36.326Z,19.64
2017-06-05T05:53:36.961Z,19.63
2017-06-05T05:54:37.603Z,19.64
2017-06-05T05:55:38.244Z,19.63
2017-06-05T05:56:38.891Z,19.69
2017-06-05T05:57:39.525Z,19.67
2017-06-05T05:58:40.168Z,19.69
2017-06-05T05:59:41.006Z,19.64
2017-06-05T06:00:41.649Z,19.70
2017-06-05T06:01:42.290Z,19.63
2017-06-05T06:02:42.929Z,19.73
2017-06-05T06:03:43.572Z,19.70
2017-06-05T06:04:44.207Z,19.76
2017-06-05T06:05:44.849Z,19.73
2017-06-05T06:06:45.491Z,19.64
2017-06-05T06:07:46.330Z,19.71
2017-06-05T06:08:46.973Z,19.74
2017-06-05T06:09:47.611Z,19.71
2017-06-05T06:10:48.256Z,19.74
2017-06-05T06:11:48.900Z,19.76
2017-06-05T06:12:49.537Z,19.71
2017-06-05T06:13:50.176Z,19.69
2017-06-05T06:14:50.820Z,19.74
2017-06-05T06:15:51.604Z,19.69
2017-06-05T06:16:52.194Z,19.66
2017-06-05T06:17:52.836Z,19.69
2017-06-05T06:18:53.478Z,19.76
2017-06-05T06:19:54.113Z,19.76
2017-06-05T06:20:54.755Z,19.73
2017-06-05T06:21:55.397Z,19.73
2017-06-05T06:22:56.035Z,19.76
2017-06-05T06:23:56.677Z,19.76
2017-06-05T06:24:57.516Z,19.76
2017-06-05T06:25:58.164Z,19.74
2017-06-05T06:26:58.856Z,19.77
2017-06-05T06:27:59.496Z,19.77
2017-06-05T06:29:00.139Z,19.76
2017-06-05T06:30:00.780Z,19.77
2017-06-05T06:31:01.422Z,19.82
2017-06-05T06:32:02.061Z,19.82
2017-06-05T06:33:02.849Z,19.79
2017-06-05T06:34:03.483Z,19.77
2017-06-05T06:35:04.153Z,19.85
2017-06-05T06:36:04.767Z,19.77
2017-06-05T06:37:05.409Z,19.89
2017-06-05T06:38:06.049Z,19.77
2017-06-05T06:39:06.691Z,19.79
2017-06-05T06:40:07.331Z,19.82
2017-06-05T06:41:08.271Z,19.81
2017-06-05T06:42:08.911Z,19.76
2017-06-05T06:43:09.548Z,19.77
2017-06-05T06:44:10.187Z,19.88
2017-06-05T06:45:10.829Z,19.88
2017-06-05T06:46:11.469Z,19.85
2017-06-05T06:47:12.108Z,19.91
2017-06-05T06:48:12.750Z,19.89
2017-06-05T06:49:13.543Z,19.89
2017-06-05T06:50:14.184Z,19.81
2017-06-05T06:51:14.823Z,19.89
2017-06-05T06:52:15.467Z,19.84
2017-06-05T06:53:16.114Z,19.89
2017-06-05T06:54:16.753Z,19.77
2017-06-05T06:55:17.394Z,19.74
2017-06-05T06:56:18.033Z,19.73
2017-06-05T06:57:18.873Z,19.82
2017-06-05T06:58:19.513Z,19.81
2017-06-05T06:59:20.154Z,19.79
2017-06-05T07:00:20.794Z,19.81
2017-06-05T07:01:21.433Z,19.82
2017-06-05T07:02:22.075Z,19.85
2017-06-05T07:03:22.710Z,19.89
2017-06-05T07:04:23.347Z,19.89
2017-06-05T07:05:23.986Z,19.91
2017-06-05T07:06:24.829Z,19.88
2017-06-05T07:07:25.471Z,19.82
2017-06-05T07:08:26.114Z,19.79
2017-06-05T07:09:26.757Z,19.99
2017-06-05T07:10:27.397Z,19.91
2017-06-05T07:11:28.036Z,19.91
2017-06-05T07:12:28.679Z,19.94
2017-06-05T07:13:29.319Z,19.85
2017-06-05T07:14:30.211Z,19.94
2017-06-05T07:15:30.852Z,19.94
2017-06-05T07:16:31.496Z,19.94
2017-06-05T07:17:32.133Z,19.99
2017-06-05T07:18:32.776Z,19.95
2017-06-05T07:19:33.415Z,19.96
2017-06-05T07:20:34.054Z,19.91
2017-06-05T07:21:34.699Z,19.92
2017-06-05T07:22:35.534Z,19.96
2017-06-05T07:23:36.169Z,19.95
2017-06-05T07:24:36.810Z,19.95
2017-06-05T07:25:37.455Z,19.92
2017-06-05T07:26:38.096Z,20.03
2017-06-05T07:27:38.736Z,20.03
2017-06-05T07:28:39.378Z,19.95
2017-06-05T07:29:40.018Z,20.00
2017-06-05T07:30:40.807Z,19.96
2017-06-05T07:31:41.448Z,19.94
2017-06-05T07:32:42.089Z,20.02
2017-06-05T07:33:42.740Z,19.96
2017-06-05T07:34:43.374Z,20.02
2017-06-05T07:35:44.015Z,19.94
2017-06-05T07:36:44.654Z,20.03
2017-06-05T07:37:45.296Z,20.00
2017-06-05T07:38:45.935Z,19.99
2017-06-05T07:39:46.775Z,19.99
2017-06-05T07:40:47.422Z,20.09
2017-06-05T07:41:48.062Z,20.00
2017-06-05T07:42:48.706Z,20.03
2017-06-05T07:43:49.344Z,20.03
2017-06-05T07:44:49.984Z,20.07
2017-06-05T07:45:50.629Z,19.99
2017-06-05T07:46:51.264Z,20.07
2017-06-05T07:47:52.205Z,20.07
2017-06-05T07:48:52.843Z,20.06
2017-06-05T07:49:53.483Z,20.02
2017-06-05T07:50:54.125Z,20.03
2017-06-05T07:51:54.766Z,20.03
2017-06-05T07:52:55.409Z,20.07
2017-06-05T07:53:56.047Z,20.06
2017-06-05T07:54:56.689Z,20.03
2017-06-05T07:55:57.535Z,20.06
2017-06-05T07:56:58.172Z,20.10
2017-06-05T07:57:58.813Z,20.06
2017-06-05T07:58:59.452Z,20.03
2017-06-05T08:00:00.095Z,20.02
2017-06-05T08:01:00.737Z,19.99
2017-06-05T08:02:01.378Z,20.04
2017-06-05T08:03:02.017Z,20.07
2017-06-05T08:04:02.808Z,20.04
2017-06-05T08:05:03.453Z,20.04
2017-06-05T08:06:04.091Z,20.06
2017-06-05T08:07:04.734Z,20.07
2017-06-05T08:08:05.379Z,20.00
2017-06-05T08:09:06.019Z,20.02
2017-06-05T08:10:06.613Z,19.96
2017-06-05T08:11:07.253Z,20.03
2017-06-05T08:12:08.090Z,19.99
2017-06-05T08:13:08.732Z,20.00
2017-06-05T08:14:09.371Z,20.02
2017-06-05T08:15:10.014Z,19.99
2017-06-05T08:16:10.659Z,20.03
2017-06-05T08:17:11.297Z,19.99
2017-06-05T08:18:11.936Z,19.96
2017-06-05T08:19:12.579Z,19.91
2017-06-05T08:20:13.218Z,20.02
2017-06-05T08:21:14.158Z,19.99
2017-06-05T08:22:14.800Z,20.04
2017-06-05T08:23:15.444Z,19.94
2017-06-05T08:24:16.084Z,20.04
2017-06-05T08:25:16.723Z,20.04
2017-06-05T08:26:17.367Z,20.00
2017-06-05T08:27:18.009Z,20.02
2017-06-05T08:28:18.648Z,20.02
2017-06-05T08:29:19.442Z,20.03
2017-06-05T08:30:20.081Z,20.13
2017-06-05T08:31:20.722Z,20.06
2017-06-05T08:32:21.362Z,20.07
2017-06-05T08:33:21.999Z,20.04
2017-06-05T08:34:22.636Z,20.06
2017-06-05T08:35:23.277Z,20.04
2017-06-05T08:36:23.916Z,20.07
2017-06-05T08:37:24.757Z,19.95
2017-06-05T08:38:25.399Z,20.04
2017-06-05T08:39:26.039Z,19.99
2017-06-05T08:40:26.681Z,20.03
2017-06-05T08:41:27.325Z,20.16
2017-06-05T08:42:27.964Z,20.14
2017-06-05T08:43:28.606Z,20.00
2017-06-05T08:44:29.249Z,20.11
2017-06-05T08:45:30.095Z,20.03
2017-06-05T08:46:30.735Z,20.02
2017-06-05T08:47:31.378Z,20.09
2017-06-05T08:48:32.018Z,20.03
2017-06-05T08:49:32.658Z,20.03
2017-06-05T08:50:33.301Z,20.03
2017-06-05T08:51:33.941Z,20.07
2017-06-05T08:52:34.584Z,20.07
2017-06-05T08:53:35.227Z,20.07
2017-06-05T08:54:36.068Z,19.99
2017-06-05T08:55:36.708Z,20.02
2017-06-05T08:56:37.348Z,20.03
2017-06-05T08:57:37.985Z,20.00
2017-06-05T08:58:38.623Z,20.03
2017-06-05T08:59:39.260Z,20.02
2017-06-05T09:00:39.903Z,20.06
2017-06-05T09:01:40.545Z,20.09
2017-06-05T09:02:41.387Z,20.02
2017-06-05T09:03:42.021Z,20.16
2017-06-05T09:04:42.664Z,20.18
2017-06-05T09:05:43.307Z,20.19
2017-06-05T09:06:43.950Z,20.14
2017-06-05T09:07:44.591Z,20.21
2017-06-05T09:08:45.232Z,20.16
2017-06-05T09:09:45.877Z,20.07
2017-06-05T09:10:46.714Z,20.19
2017-06-05T09:11:47.356Z,20.21
2017-06-05T09:12:47.997Z,20.16
2017-06-05T09:13:48.638Z,20.24
2017-06-05T09:14:49.280Z,20.21
2017-06-05T09:15:49.923Z,20.16
2017-06-05T09:16:50.561Z,20.14
2017-06-05T09:17:51.206Z,20.14
2017-06-05T09:18:51.949Z,20.25
2017-06-05T09:19:52.589Z,20.10
2017-06-05T09:20:53.234Z,20.22
2017-06-05T09:21:53.871Z,20.18
2017-06-05T09:22:54.509Z,20.14
2017-06-05T09:23:55.150Z,20.07
2017-06-05T09:24:55.784Z,20.21
2017-06-05T09:25:56.428Z,20.22
2017-06-05T09:26:57.370Z,20.25
2017-06-05T09:27:58.006Z,20.29
2017-06-05T09:28:58.650Z,20.25
2017-06-05T09:29:59.290Z,20.26
2017-06-05T09:30:59.935Z,20.29
2017-06-05T09:32:00.577Z,20.29
2017-06-05T09:33:01.217Z,20.32
2017-06-05T09:34:01.859Z,20.31
2017-06-05T09:35:02.501Z,20.26
2017-06-05T09:36:03.339Z,20.32
2017-06-05T09:37:03.981Z,20.32
2017-06-05T09:38:04.625Z,20.29
2017-06-05T09:39:05.261Z,20.28
2017-06-05T09:40:05.906Z,20.31
2017-06-05T09:41:06.548Z,20.37
2017-06-05T09:42:07.188Z,20.36
2017-06-05T09:43:07.832Z,20.40
2017-06-05T09:44:08.676Z,20.40
2017-06-05T09:45:09.321Z,20.37
2017-06-05T09:46:09.963Z,20.41
2017-06-05T09:47:10.607Z,20.47
2017-06-05T09:48:11.247Z,20.43
2017-06-05T09:49:11.883Z,20.44
2017-06-05T09:50:12.526Z,20.48
2017-06-05T09:51:13.166Z,20.43
2017-06-05T09:52:13.959Z,20.44
2017-06-05T09:53:14.612Z,20.44
2017-06-05T09:54:15.252Z,20.47
2017-06-05T09:55:15.897Z,20.41
2017-06-05T09:56:16.532Z,20.55
2017-06-05T09:57:17.177Z,20.50
2017-06-05T09:58:17.822Z,20.48
2017-06-05T09:59:18.466Z,20.55
2017-06-05T10:00:19.408Z,20.58
2017-06-05T10:01:20.050Z,20.55
2017-06-05T10:02:20.691Z,20.55
2017-06-05T10:03:21.331Z,20.58
2017-06-05T10:04:21.973Z,20.62
2017-06-05T10:05:22.615Z,20.60
2017-06-05T10:06:23.257Z,20.60
2017-06-05T10:07:23.903Z,20.65
2017-06-05T10:08:24.545Z,20.58
2017-06-05T10:09:25.386Z,20.63
2017-06-05T10:10:26.031Z,20.66
2017-06-05T10:11:26.667Z,20.62
2017-06-05T10:12:27.311Z,20.63
2017-06-05T10:13:27.956Z,20.66
2017-06-05T10:14:28.592Z,20.59
2017-06-05T10:15:29.236Z,20.60
2017-06-05T10:16:29.884Z,20.66
2017-06-05T10:17:30.719Z,20.69
2017-06-05T10:18:31.360Z,20.75
2017-06-05T10:19:31.995Z,20.74
2017-06-05T10:20:32.636Z,20.70
2017-06-05T10:21:33.279Z,20.80
2017-06-05T10:22:33.920Z,20.72
2017-06-05T10:23:34.562Z,20.67
2017-06-05T10:24:35.208Z,20.84
2017-06-05T10:25:36.050Z,20.77
2017-06-05T10:26:36.694Z,20.80
2017-06-05T10:27:37.335Z,20.80
2017-06-05T10:28:37.977Z,20.82
2017-06-05T10:29:38.619Z,20.80
2017-06-05T10:30:39.265Z,20.77
2017-06-05T10:31:39.907Z,20.75
2017-06-05T10:32:40.552Z,20.75
2017-06-05T10:33:41.393Z,20.75
2017-06-05T10:34:42.044Z,20.77
2017-06-05T10:35:42.687Z,20.74
2017-06-05T10:36:43.385Z,20.78
2017-06-05T10:37:44.027Z,20.81
2017-06-05T10:38:44.662Z,20.75
2017-06-05T10:39:45.306Z,20.78
2017-06-05T10:40:45.952Z,20.77
2017-06-05T10:41:46.795Z,20.80
2017-06-05T10:42:47.432Z,20.72
2017-06-05T10:43:48.074Z,20.78
2017-06-05T10:44:48.718Z,20.72
2017-06-05T10:45:49.360Z,20.77
2017-06-05T10:46:50.004Z,20.84
2017-06-05T10:47:50.650Z,20.75
2017-06-05T10:48:51.289Z,20.81
2017-06-05T10:49:51.934Z,20.75
2017-06-05T10:50:52.773Z,20.74
2017-06-05T10:51:53.417Z,20.77
2017-06-05T10:52:54.060Z,20.78
2017-06-05T10:53:54.704Z,20.80
2017-06-05T10:54:55.345Z,20.84
2017-06-05T10:55:55.988Z,20.88
2017-06-05T10:56:56.631Z,20.85
2017-06-05T10:57:57.273Z,20.88
2017-06-05T10:58:58.116Z,20.88
2017-06-05T10:59:58.765Z,20.87
2017-06-05T11:00:59.404Z,20.85
2017-06-05T11:02:00.044Z,20.88
2017-06-05T11:03:00.685Z,20.92
2017-06-05T11:04:01.328Z,20.92
2017-06-05T11:05:01.970Z,20.93
2017-06-05T11:06:02.612Z,20.88
2017-06-05T11:07:03.405Z,20.90
2017-06-05T11:08:04.048Z,20.90
2017-06-05T11:09:04.690Z,20.92
2017-06-05T11:10:05.337Z,20.96
2017-06-05T11:11:05.977Z,20.96
2017-06-05T11:12:06.615Z,20.85
2017-06-05T11:13:07.257Z,20.88
2017-06-05T11:14:07.898Z,20.87
2017-06-05T11:15:08.743Z,21.00
2017-06-05T11:16:09.385Z,21.07
2017-06-05T11:17:10.029Z,20.97
2017-06-05T11:18:10.673Z,20.97
2017-06-05T11:19:11.314Z,20.92
2017-06-05T11:20:11.957Z,21.02
2017-06-05T11:21:12.596Z,20.92
2017-06-05T11:22:13.235Z,21.06
2017-06-05T11:23:13.881Z,20.99
2017-06-05T11:24:14.723Z,21.03
2017-06-05T11:25:15.365Z,21.02
2017-06-05T11:26:16.007Z,21.07
2017-06-05T11:27:16.649Z,21.05
2017-06-05T11:28:17.292Z,21.02
2017-06-05T11:29:17.929Z,21.09
2017-06-05T11:30:18.575Z,21.07
2017-06-05T11:31:19.217Z,21.09
2017-06-05T11:32:20.208Z,21.07
2017-06-05T11:33:20.849Z,21.07
2017-06-05T11:34:21.493Z,21.14
2017-06-05T11:35:22.137Z,21.15
2017-06-05T11:36:22.779Z,21.15
2017-06-05T11:37:23.422Z,21.14
2017-06-05T11:38:24.066Z,21.14
2017-06-05T11:39:24.710Z,21.18
2017-06-05T11:40:25.503Z,21.14
2017-06-05T11:41:26.146Z,21.17
2017-06-05T11:42:26.787Z,21.18
2017-06-05T11:43:27.434Z,21.22
2017-06-05T11:44:28.130Z,21.18
2017-06-05T11:45:28.769Z,21.15
2017-06-05T11:46:29.412Z,21.14
2017-06-05T11:47:30.058Z,21.20
2017-06-05T11:48:30.952Z,21.15
2017-06-05T11:49:31.594Z,21.24
2017-06-05T11:50:32.235Z,21.20
2017-06-05T11:51:32.879Z,21.24
2017-06-05T11:52:33.520Z,21.17
2017-06-05T11:53:34.159Z,21.18
2017-06-05T11:54:34.805Z,21.27
2017-06-05T11:55:35.447Z,21.30
2017-06-05T11:56:36.340Z,21.25
2017-06-05T11:57:36.984Z,21.24
2017-06-05T11:58:37.620Z,21.32
2017-06-05T11:59:38.262Z,21.30
2017-06-05T12:00:38.909Z,21.27
2017-06-05T12:01:39.549Z,21.24
2017-06-05T12:02:40.192Z,21.30
2017-06-05T12:03:40.829Z,21.21
2017-06-05T12:04:41.471Z,21.18
2017-06-05T12:05:42.312Z,21.15
2017-06-05T12:06:42.957Z,21.17
2017-06-05T12:07:43.601Z,21.30
2017-06-05T12:08:44.242Z,21.22
2017-06-05T12:09:44.885Z,21.24
2017-06-05T12:10:45.530Z,21.24
2017-06-05T12:11:46.168Z,21.22
2017-06-05T12:12:46.807Z,21.24
2017-06-05T12:13:47.651Z,21.21
2017-06-05T12:14:48.295Z,21.24
2017-06-05T12:15:48.940Z,21.21
2017-06-05T12:16:49.579Z,21.20
2017-06-05T12:17:50.224Z,21.27
2017-06-05T12:18:50.860Z,21.21
2017-06-05T12:19:51.505Z,21.09
2017-06-05T12:20:52.141Z,21.14
2017-06-05T12:21:52.983Z,21.17
2017-06-05T12:22:53.627Z,21.18
2017-06-05T12:23:54.274Z,21.14
2017-06-05T12:24:54.914Z,21.17
2017-06-05T12:25:55.558Z,21.18
2017-06-05T12:26:56.199Z,21.21
2017-06-05T12:27:56.840Z,21.17
2017-06-05T12:28:57.485Z,21.18
2017-06-05T12:29:58.325Z,21.18
2017-06-05T12:30:58.968Z,21.18
2017-06-05T12:31:59.610Z,21.14
2017-06-05T12:33:00.254Z,21.21
2017-06-05T12:34:00.898Z,21.18
2017-06-05T12:35:01.542Z,21.17
2017-06-05T12:36:02.182Z,21.17
2017-06-05T12:37:02.825Z,21.18
2017-06-05T12:38:03.421Z,21.25
2017-06-05T12:39:04.262Z,21.12
2017-06-05T12:40:04.905Z,21.27
2017-06-05T12:41:05.545Z,21.24
2017-06-05T12:42:06.186Z,21.25
2017-06-05T12:43:06.822Z,21.32
2017-06-05T12:44:07.466Z,21.29
2017-06-05T12:45:08.108Z,21.24
2017-06-05T12:46:08.751Z,21.27
2017-06-05T12:47:09.543Z,21.27
2017-06-05T12:48:10.186Z,21.30
2017-06-05T12:49:10.825Z,21.30
2017-06-05T12:50:11.466Z,21.24
2017-06-05T12:51:12.108Z,21.24
2017-06-05T12:52:12.753Z,21.30
2017-06-05T12:53:13.396Z,21.22
2017-06-05T12:54:14.039Z,21.27
2017-06-05T12:55:14.882Z,21.32
2017-06-05T12:56:15.518Z,21.29
2017-06-05T12:57:16.163Z,21.32
2017-06-05T12:58:16.835Z,21.29
2017-06-05T12:59:17.442Z,21.32
2017-06-05T13:00:18.084Z,21.33
2017-06-05T13:01:18.727Z,21.32